Time;durP1;ratioP1;P1;durP2;ratioP2;P2;SDS_P1;SDS_P2;PMS_P1;PMS_P2;Temp;Humidity;BMP_temperature;BMP_pressure;BME280_temperature;BME280_humidity;BME280_pressure;Samples;Min_cycle;Max_cycle;Signal;HPM_P1;HPM_P2
2022/09/13 00:02:10;;;;;;;2.30;2.20;;;17.20;99.90;;;;;;5107313;28;20213;-70
2022/09/13 00:04:37;;;;;;;2.30;2.20;;;17.20;99.90;;;;;;5116695;27;20212;-70
2022/09/13 00:07:04;;;;;;;3.07;2.33;;;17.20;99.90;;;;;;5128206;27;20216;-70
2022/09/13 00:09:30;;;;;;;2.50;2.40;;;17.20;99.90;;;;;;5127772;27;20220;-70
2022/09/13 00:11:57;;;;;;;2.67;2.47;;;17.20;99.90;;;;;;5127668;27;20213;-70
2022/09/13 00:14:25;;;;;;;2.60;2.40;;;17.20;99.90;;;;;;5125680;27;20209;-70
2022/09/13 00:16:52;;;;;;;2.30;2.00;;;17.20;99.90;;;;;;5127187;27;20225;-70
2022/09/13 00:19:18;;;;;;;2.27;2.17;;;17.20;99.90;;;;;;5127895;27;20201;-70
2022/09/13 00:21:45;;;;;;;2.20;2.10;;;17.20;99.90;;;;;;5127881;27;20596;-70
2022/09/13 00:24:12;;;;;;;2.33;2.23;;;17.20;99.90;;;;;;5134756;27;20216;-70
2022/09/13 00:26:39;;;;;;;2.20;2.10;;;17.20;99.90;;;;;;5144533;27;20205;-70
2022/09/13 00:29:05;;;;;;;2.53;2.17;;;17.10;99.90;;;;;;5128990;27;20579;-70
2022/09/13 00:31:33;;;;;;;1.90;1.80;;;17.10;99.90;;;;;;5113813;27;20209;-70
2022/09/13 00:34:00;;;;;;;2.20;2.10;;;17.10;99.90;;;;;;5128170;27;20670;-70
2022/09/13 00:36:28;;;;;;;2.20;2.10;;;17.00;99.90;;;;;;5131669;27;20205;-70
2022/09/13 00:38:54;;;;;;;2.20;2.10;;;17.00;99.90;;;;;;5113987;27;20230;-70
2022/09/13 00:41:22;;;;;;;2.40;2.30;;;16.90;99.90;;;;;;5130763;27;20193;-70
2022/09/13 00:43:51;;;;;;;2.30;2.20;;;16.90;99.90;;;;;;5130915;27;20220;-70
2022/09/13 00:46:26;;;;;;;2.50;2.30;;;16.90;99.90;;;;;;5130640;27;20244;-70
2022/09/13 00:49:00;;;;;;;2.27;2.17;;;16.90;99.90;;;;;;5131349;27;20188;-70
2022/09/13 00:51:28;;;;;;;3.10;2.60;;;16.80;99.90;;;;;;5131462;27;20276;-70
2022/09/13 00:53:58;;;;;;;2.53;2.40;;;16.70;99.90;;;;;;5135855;27;20261;-70
2022/09/13 00:56:31;;;;;;;2.70;2.50;;;16.70;99.90;;;;;;5133599;27;20201;-70
2022/09/13 00:59:01;;;;;;;2.70;2.50;;;16.70;99.90;;;;;;5131012;27;20229;-69
2022/09/13 01:01:33;;;;;;;2.60;2.40;;;16.60;99.90;;;;;;5112416;27;20578;-70
2022/09/13 01:04:02;;;;;;;2.50;2.30;;;16.60;99.90;;;;;;5110567;27;20222;-70
2022/09/13 01:06:32;;;;;;;2.70;2.50;;;16.60;99.90;;;;;;5110359;28;20211;-70
2022/09/13 01:09:03;;;;;;;2.37;2.20;;;16.70;99.90;;;;;;5118381;27;20691;-70
2022/09/13 01:11:35;;;;;;;2.70;2.50;;;16.60;99.90;;;;;;5117424;27;20269;-71
2022/09/13 01:14:03;;;;;;;3.30;2.53;;;16.60;99.90;;;;;;5126478;27;20202;-71
2022/09/13 01:16:29;;;;;;;2.47;2.30;;;16.60;99.90;;;;;;5109749;28;20717;-71
2022/09/13 01:18:56;;;;;;;2.30;2.10;;;16.50;99.90;;;;;;5110365;28;20234;-71
2022/09/13 01:25:19;;;;;;;2.67;2.57;;;16.50;99.90;;;;;;5084943;27;20610;-71
2022/09/13 01:28:01;;;;;;;2.00;1.90;;;16.60;99.90;;;;;;5066616;28;20215;-71
2022/09/13 01:30:35;;;;;;;2.07;1.90;;;16.60;99.90;;;;;;5044678;28;20196;-71
2022/09/13 01:33:25;;;;;;;2.80;2.60;;;16.60;99.90;;;;;;5045010;28;20203;-71
2022/09/13 01:36:31;;;;;;;2.00;1.90;;;16.60;99.90;;;;;;5050075;28;20669;-71
2022/09/13 01:39:03;;;;;;;2.73;2.53;;;16.60;99.90;;;;;;5064571;28;20335;-70
2022/09/13 01:41:49;;;;;;;2.87;2.40;;;16.60;99.90;;;;;;5064693;28;20845;-70
2022/09/13 01:44:29;;;;;;;2.37;2.17;;;16.50;99.90;;;;;;5064257;28;20713;-69
2022/09/13 01:47:06;;;;;;;2.47;2.37;;;16.50;99.90;;;;;;5064102;28;20198;-70
2022/09/13 01:49:43;;;;;;;3.40;2.43;;;16.50;99.90;;;;;;5064762;28;20194;-69
2022/09/13 01:52:18;;;;;;;2.37;2.17;;;16.50;99.90;;;;;;5064073;28;20692;-69
2022/09/13 01:54:52;;;;;;;2.37;2.17;;;16.50;99.90;;;;;;5075663;28;20209;-70
2022/09/13 01:57:27;;;;;;;2.50;2.30;;;16.50;99.90;;;;;;5057166;28;20249;-69
2022/09/13 01:59:59;;;;;;;2.33;2.20;;;16.50;99.90;;;;;;5064643;28;20198;-70
2022/09/13 02:02:34;;;;;;;2.17;2.07;;;16.50;99.90;;;;;;5063796;28;20211;-69
2022/09/13 02:05:06;;;;;;;1.90;1.80;;;16.50;99.90;;;;;;5064036;28;20201;-69
2022/09/13 02:07:37;;;;;;;2.10;2.00;;;16.50;99.90;;;;;;5078070;28;20218;-70
2022/09/13 02:10:09;;;;;;;2.33;2.20;;;16.50;99.90;;;;;;5064204;28;20202;-69
2022/09/13 02:12:39;;;;;;;2.30;2.20;;;16.40;99.90;;;;;;5053943;28;20201;-70
2022/09/13 02:15:10;;;;;;;2.90;2.70;;;16.40;99.90;;;;;;5044014;28;20529;-70
2022/09/13 02:17:42;;;;;;;2.43;2.33;;;16.40;99.90;;;;;;5043491;28;20207;-69
2022/09/13 02:20:15;;;;;;;2.37;2.17;;;16.40;99.90;;;;;;5043899;28;20200;-71
2022/09/13 02:22:47;;;;;;;3.60;2.30;;;16.30;99.90;;;;;;5049911;28;20248;-67
2022/09/13 02:25:16;;;;;;;2.30;2.20;;;16.30;99.90;;;;;;5070465;28;20200;-68
2022/09/13 02:27:45;;;;;;;2.80;2.20;;;16.30;99.90;;;;;;5061986;28;20379;-68
2022/09/13 02:30:13;;;;;;;2.47;2.07;;;16.30;99.90;;;;;;5048584;28;20212;-67
2022/09/13 02:32:45;;;;;;;4.83;2.50;;;16.20;99.90;;;;;;5041940;28;20710;-68
2022/09/13 02:35:18;;;;;;;2.40;2.20;;;16.20;99.90;;;;;;5051878;28;20257;-68
2022/09/13 02:37:49;;;;;;;2.23;2.13;;;16.20;99.90;;;;;;5047784;28;20228;-68
2022/09/13 02:40:20;;;;;;;2.30;2.20;;;16.20;99.90;;;;;;5047729;28;20220;-68
2022/09/13 02:42:53;;;;;;;2.60;2.40;;;16.10;99.90;;;;;;5047410;28;20196;-68
2022/09/13 02:45:24;;;;;;;2.30;2.20;;;16.10;99.90;;;;;;5047728;28;20200;-68
2022/09/13 02:47:56;;;;;;;2.30;2.20;;;16.10;99.90;;;;;;5047783;28;20279;-68
2022/09/13 02:50:33;;;;;;;2.90;2.40;;;16.10;99.90;;;;;;5047938;28;20196;-68
2022/09/13 02:53:06;;;;;;;2.50;2.30;;;16.10;99.90;;;;;;5048030;28;20204;-68
2022/09/13 02:55:42;;;;;;;2.60;2.40;;;16.00;99.90;;;;;;5066065;28;20673;-68
2022/09/13 02:58:13;;;;;;;2.13;2.03;;;16.00;99.90;;;;;;5048675;28;20196;-68
2022/09/13 03:00:41;;;;;;;2.47;2.37;;;16.00;99.90;;;;;;5036897;28;20208;-68
2022/09/13 03:03:12;;;;;;;2.40;2.20;;;16.00;99.90;;;;;;5041885;28;20235;-67
2022/09/13 03:05:39;;;;;;;2.63;2.43;;;16.00;99.90;;;;;;5027613;28;20197;-68
2022/09/13 03:08:09;;;;;;;2.30;2.10;;;16.00;99.90;;;;;;5027610;28;20223;-67
2022/09/13 03:10:48;;;;;;;3.07;2.87;;;16.00;99.90;;;;;;5043387;28;20208;-68
2022/09/13 03:13:56;;;;;;;2.63;2.53;;;15.90;99.90;;;;;;5048218;28;20670;-68
2022/09/13 03:16:37;;;;;;;4.20;2.50;;;15.90;99.90;;;;;;5015803;28;20235;-68
2022/09/13 03:19:28;;;;;;;2.70;2.50;;;15.90;99.90;;;;;;5047840;28;20211;-68
2022/09/13 03:22:21;;;;;;;2.70;2.60;;;15.90;99.90;;;;;;5047749;28;20235;-68
2022/09/13 03:24:54;;;;;;;3.23;2.60;;;15.90;99.90;;;;;;5047675;28;20239;-67
2022/09/13 03:27:30;;;;;;;2.83;2.60;;;15.90;99.90;;;;;;5048015;28;20208;-67
2022/09/13 03:30:03;;;;;;;2.57;2.47;;;15.90;99.90;;;;;;5049305;28;20196;-68
2022/09/13 03:32:37;;;;;;;2.50;2.40;;;15.90;99.90;;;;;;5048438;28;20201;-68
2022/09/13 03:35:15;;;;;;;2.97;2.77;;;15.90;99.90;;;;;;5048697;28;20299;-68
2022/09/13 03:37:48;;;;;;;3.30;3.10;;;15.90;99.90;;;;;;5048986;28;20238;-68
2022/09/13 03:40:19;;;;;;;3.70;3.40;;;15.90;99.90;;;;;;5048765;28;20639;-68
2022/09/13 03:42:50;;;;;;;3.17;3.00;;;15.90;99.90;;;;;;5048935;28;20200;-68
2022/09/13 03:45:19;;;;;;;3.20;3.00;;;15.90;99.90;;;;;;5048535;28;20228;-68
2022/09/13 03:47:49;;;;;;;3.00;2.87;;;15.90;99.90;;;;;;5047995;28;20230;-68
2022/09/13 03:50:21;;;;;;;2.93;2.83;;;15.90;99.90;;;;;;5034798;28;20205;-68
2022/09/13 03:52:51;;;;;;;3.20;3.00;;;15.90;99.90;;;;;;5028606;28;20193;-68
2022/09/13 03:55:18;;;;;;;3.60;2.87;;;15.90;99.90;;;;;;5059881;28;20736;-68
2022/09/13 03:57:45;;;;;;;4.10;2.97;;;15.90;99.90;;;;;;5066273;28;20207;-68
2022/09/13 04:00:16;;;;;;;3.13;3.03;;;15.90;99.90;;;;;;5048169;28;20208;-68
2022/09/13 04:02:43;;;;;;;3.70;2.90;;;15.90;99.90;;;;;;5048299;28;20231;-68
2022/09/13 04:05:10;;;;;;;3.27;3.07;;;15.90;99.90;;;;;;5048306;28;20236;-68
2022/09/13 04:07:38;;;;;;;3.27;2.97;;;15.80;99.90;;;;;;5048636;28;20215;-68
2022/09/13 04:10:06;;;;;;;3.47;3.27;;;15.80;99.90;;;;;;5048488;28;20226;-68
2022/09/13 04:12:34;;;;;;;4.30;3.30;;;15.80;99.90;;;;;;5048096;28;20285;-68
2022/09/13 04:15:00;;;;;;;3.20;3.00;;;15.80;99.90;;;;;;5047983;28;20654;-68
2022/09/13 04:17:27;;;;;;;3.30;3.10;;;15.80;99.90;;;;;;5047689;28;20216;-68
2022/09/13 04:19:54;;;;;;;3.90;3.60;;;15.80;99.90;;;;;;5048265;28;20207;-68
2022/09/13 04:22:21;;;;;;;3.33;3.13;;;15.80;99.90;;;;;;5047936;28;20814;-69
2022/09/13 04:24:49;;;;;;;3.60;3.30;;;15.80;99.90;;;;;;5059396;28;20223;-68
2022/09/13 04:27:16;;;;;;;3.90;3.60;;;15.70;99.90;;;;;;5067832;28;20700;-68
2022/09/13 04:29:43;;;;;;;3.67;3.37;;;15.70;99.90;;;;;;5067984;28;20215;-68
2022/09/13 04:32:10;;;;;;;4.00;3.80;;;15.70;99.90;;;;;;5067719;28;20231;-68
2022/09/13 04:34:37;;;;;;;3.47;3.27;;;15.70;99.90;;;;;;5067836;28;20214;-68
2022/09/13 04:37:03;;;;;;;4.13;3.83;;;15.70;99.90;;;;;;5067754;28;20207;-68
2022/09/13 04:39:30;;;;;;;3.43;3.23;;;15.70;99.90;;;;;;5055636;28;20207;-68
2022/09/13 04:41:58;;;;;;;3.80;3.60;;;15.60;99.90;;;;;;5047783;28;20576;-68
2022/09/13 04:44:26;;;;;;;4.27;3.87;;;15.60;99.90;;;;;;5047493;28;20232;-68
2022/09/13 04:46:52;;;;;;;4.20;3.80;;;15.60;99.90;;;;;;5047293;28;20200;-68
2022/09/13 04:49:20;;;;;;;4.40;4.00;;;15.60;99.90;;;;;;5047244;28;20685;-68
2022/09/13 04:51:47;;;;;;;3.90;3.60;;;15.60;99.90;;;;;;5047515;28;20227;-68
2022/09/13 04:54:14;;;;;;;4.20;3.90;;;15.60;99.90;;;;;;5052165;28;20212;-68
2022/09/13 04:56:41;;;;;;;3.93;3.63;;;15.60;99.90;;;;;;5059000;28;20212;-68
2022/09/13 04:59:10;;;;;;;4.27;3.97;;;15.60;99.90;;;;;;5046823;28;20671;-68
2022/09/13 05:01:37;;;;;;;4.30;4.00;;;15.60;99.90;;;;;;5047044;28;20234;-68
2022/09/13 05:04:04;;;;;;;4.60;3.70;;;15.60;99.90;;;;;;5046977;28;20232;-68
2022/09/13 05:06:30;;;;;;;4.00;3.70;;;15.60;99.90;;;;;;5047234;28;20685;-68
2022/09/13 05:08:57;;;;;;;4.53;4.23;;;15.60;99.90;;;;;;5045450;28;20204;-68
2022/09/13 05:11:26;;;;;;;4.30;4.00;;;15.60;99.90;;;;;;5045248;28;20748;-68
2022/09/13 05:13:54;;;;;;;4.43;4.17;;;15.60;99.90;;;;;;5039863;28;20215;-68
2022/09/13 05:16:24;;;;;;;4.23;4.00;;;15.70;99.90;;;;;;5026996;28;20621;-68
2022/09/13 05:18:51;;;;;;;4.20;4.00;;;15.60;99.90;;;;;;5027231;28;20761;-68
2022/09/13 05:21:18;;;;;;;4.60;4.07;;;15.60;99.90;;;;;;5027245;28;20213;-68
2022/09/13 05:23:48;;;;;;;4.10;3.80;;;15.70;99.90;;;;;;5029529;28;20240;-68
2022/09/13 05:26:14;;;;;;;3.90;3.70;;;15.60;99.90;;;;;;5047261;28;20208;-68
2022/09/13 05:28:41;;;;;;;4.20;3.90;;;15.60;99.90;;;;;;5046843;28;20565;-68
2022/09/13 05:31:13;;;;;;;4.40;4.00;;;15.70;99.90;;;;;;5047149;28;20208;-69
2022/09/13 05:33:41;;;;;;;4.70;4.40;;;15.70;99.90;;;;;;5047118;28;20196;-68
2022/09/13 05:36:08;;;;;;;5.20;4.80;;;15.70;99.90;;;;;;5046919;28;20679;-69
2022/09/13 05:38:35;;;;;;;4.27;4.07;;;15.60;99.90;;;;;;5047140;28;20235;-68
2022/09/13 05:41:07;;;;;;;4.70;4.40;;;15.50;99.90;;;;;;5047043;28;20835;-68
2022/09/13 05:43:35;;;;;;;4.60;4.30;;;15.30;99.90;;;;;;5027202;28;20197;-68
2022/09/13 05:46:05;;;;;;;5.70;4.60;;;15.10;99.90;;;;;;5027059;28;20205;-68
2022/09/13 05:48:34;;;;;;;5.17;4.77;;;15.20;99.90;;;;;;5027503;28;20227;-68
2022/09/13 05:51:09;;;;;;;5.07;4.77;;;15.00;99.90;;;;;;5035915;28;20615;-68
2022/09/13 05:53:36;;;;;;;5.60;4.97;;;14.90;99.90;;;;;;5048625;28;20203;-68
2022/09/13 05:56:07;;;;;;;5.70;5.20;;;14.70;99.90;;;;;;5067089;28;20294;-68
2022/09/13 05:58:34;;;;;;;5.97;5.50;;;14.50;99.90;;;;;;5067165;28;20199;-68
2022/09/13 06:01:01;;;;;;;6.00;5.60;;;14.40;99.90;;;;;;5066548;28;20950;-68
2022/09/13 06:03:28;;;;;;;6.27;5.77;;;14.40;99.90;;;;;;5066938;28;20234;-68
2022/09/13 06:05:56;;;;;;;6.20;5.60;;;14.50;99.90;;;;;;5066400;28;20237;-68
2022/09/13 06:08:24;;;;;;;5.93;5.37;;;14.60;99.90;;;;;;5066824;28;20207;-68
2022/09/13 06:10:55;;;;;;;5.60;5.20;;;14.70;99.90;;;;;;5055966;28;20701;-68
2022/09/13 06:13:22;;;;;;;5.93;5.33;;;14.70;99.90;;;;;;5050318;28;20276;-67
2022/09/13 06:15:49;;;;;;;5.33;5.03;;;14.70;99.90;;;;;;5050195;28;20211;-67
2022/09/13 06:18:16;;;;;;;4.93;4.53;;;14.70;99.90;;;;;;5050173;28;20216;-68
2022/09/13 06:20:43;;;;;;;4.93;4.57;;;14.80;99.90;;;;;;5050467;28;20212;-68
2022/09/13 06:23:10;;;;;;;5.70;5.10;;;14.90;99.90;;;;;;5049689;28;20232;-68
2022/09/13 06:25:38;;;;;;;5.60;5.20;;;14.90;99.90;;;;;;5068453;28;20239;-68
2022/09/13 06:28:05;;;;;;;5.67;5.17;;;15.00;99.90;;;;;;5070490;28;20214;-68
2022/09/13 06:30:32;;;;;;;6.27;4.73;;;15.10;99.90;;;;;;5069998;28;20214;-69
2022/09/13 06:32:59;;;;;;;4.93;4.60;;;15.20;99.90;;;;;;5070061;28;20292;-68
2022/09/13 06:35:26;;;;;;;4.90;4.50;;;15.10;99.90;;;;;;5070048;28;20298;-68
2022/09/13 06:37:55;;;;;;;5.70;5.37;;;15.10;99.90;;;;;;5065434;28;20220;-68
2022/09/13 06:40:22;;;;;;;5.40;5.00;;;15.20;99.90;;;;;;5049722;28;20238;-68
2022/09/13 06:42:52;;;;;;;6.03;5.40;;;15.30;99.90;;;;;;5050109;28;20212;-68
2022/09/13 06:45:19;;;;;;;5.30;4.93;;;15.30;99.90;;;;;;5049788;28;20232;-68
2022/09/13 06:47:45;;;;;;;5.30;4.90;;;15.40;99.90;;;;;;5060359;28;20669;-68
2022/09/13 06:50:12;;;;;;;5.40;5.00;;;15.50;99.90;;;;;;5052762;28;20208;-68
2022/09/13 06:52:39;;;;;;;6.10;5.70;;;15.60;99.90;;;;;;5049671;28;20215;-68
2022/09/13 06:55:06;;;;;;;5.83;5.33;;;15.70;99.90;;;;;;5049620;28;20212;-69
2022/09/13 06:57:33;;;;;;;5.80;5.40;;;15.80;99.90;;;;;;5049982;28;20204;-69
2022/09/13 07:00:01;;;;;;;5.73;5.27;;;15.90;99.90;;;;;;5049663;28;20243;-69
2022/09/13 07:02:28;;;;;;;5.73;5.37;;;15.90;99.90;;;;;;5049094;28;20670;-69
2022/09/13 07:04:55;;;;;;;5.80;5.40;;;16.00;99.90;;;;;;5049143;28;20223;-69
2022/09/13 07:07:22;;;;;;;5.90;5.50;;;16.00;99.90;;;;;;5048782;28;20208;-68
2022/09/13 07:09:48;;;;;;;5.90;5.50;;;16.10;99.90;;;;;;5049263;28;20299;-69
2022/09/13 07:12:15;;;;;;;6.00;5.50;;;16.10;99.90;;;;;;5048748;28;20605;-69
2022/09/13 07:14:42;;;;;;;6.33;5.73;;;16.20;99.90;;;;;;5049038;28;20249;-68
2022/09/13 07:17:10;;;;;;;6.03;5.53;;;16.20;99.90;;;;;;5049009;28;20223;-68
2022/09/13 07:19:36;;;;;;;6.10;5.60;;;16.20;99.90;;;;;;5049359;28;20204;-68
2022/09/13 07:22:04;;;;;;;18.33;6.67;;;16.20;99.90;;;;;;5048730;28;20689;-68
2022/09/13 07:24:30;;;;;;;10.57;6.13;;;16.10;99.90;;;;;;5048304;28;20667;-68
2022/09/13 07:26:58;;;;;;;6.87;5.93;;;16.10;99.90;;;;;;5048806;28;20215;-68
2022/09/13 07:29:24;;;;;;;7.13;6.43;;;16.20;99.90;;;;;;5049083;28;20291;-68
2022/09/13 07:31:53;;;;;;;7.27;6.20;;;16.20;99.90;;;;;;5048904;28;20283;-68
2022/09/13 07:34:22;;;;;;;6.67;5.87;;;16.30;99.90;;;;;;5048382;28;20777;-68
2022/09/13 07:36:51;;;;;;;5.73;5.33;;;16.40;99.90;;;;;;5048593;28;20208;-68
2022/09/13 07:39:18;;;;;;;6.27;5.77;;;16.40;99.90;;;;;;5048831;28;20212;-68
2022/09/13 07:41:47;;;;;;;6.77;6.27;;;16.40;99.90;;;;;;5048869;28;20686;-68
2022/09/13 07:44:14;;;;;;;6.40;5.90;;;16.40;99.90;;;;;;5048062;28;20659;-69
2022/09/13 07:46:42;;;;;;;6.40;5.97;;;16.50;99.90;;;;;;5048012;28;20212;-69
2022/09/13 07:49:10;;;;;;;6.40;5.80;;;16.50;99.90;;;;;;5048488;28;20225;-66
2022/09/13 07:51:40;;;;;;;6.70;6.10;;;16.50;99.90;;;;;;5048872;28;20216;-69
2022/09/13 07:54:10;;;;;;;6.83;6.30;;;16.40;99.90;;;;;;5054481;28;20234;-68
2022/09/13 07:56:38;;;;;;;8.50;6.47;;;16.40;99.90;;;;;;5068495;28;20582;-69
2022/09/13 07:59:06;;;;;;;7.33;6.67;;;16.40;99.90;;;;;;5068337;28;20218;-69
2022/09/13 08:01:36;;;;;;;7.20;6.30;;;16.50;99.90;;;;;;5068601;28;20199;-69
2022/09/13 08:04:05;;;;;;;6.63;6.13;;;16.60;99.90;;;;;;5049322;28;20204;-69
2022/09/13 08:06:33;;;;;;;6.97;6.43;;;16.60;99.90;;;;;;5048391;28;20236;-69
2022/09/13 08:09:02;;;;;;;6.87;6.37;;;16.70;99.90;;;;;;5048084;28;20602;-69
2022/09/13 08:11:32;;;;;;;7.20;6.60;;;16.70;99.90;;;;;;5048169;28;20208;-69
2022/09/13 08:13:59;;;;;;;7.47;6.87;;;16.80;99.90;;;;;;5048318;28;20208;-69
2022/09/13 08:16:28;;;;;;;6.90;6.30;;;16.80;99.90;;;;;;5047769;28;20208;-69
2022/09/13 08:18:58;;;;;;;6.80;6.40;;;16.90;99.90;;;;;;5048007;28;20208;-69
2022/09/13 08:21:26;;;;;;;7.47;6.77;;;16.80;99.90;;;;;;5047758;28;20681;-69
2022/09/13 08:23:55;;;;;;;7.17;6.67;;;16.90;99.90;;;;;;5047786;28;20243;-69
2022/09/13 08:26:23;;;;;;;8.30;7.10;;;16.90;99.90;;;;;;5047743;28;20770;-69
2022/09/13 08:28:57;;;;;;;7.43;6.80;;;16.90;99.90;;;;;;5047804;28;20203;-69
2022/09/13 08:31:23;;;;;;;7.80;7.10;;;16.80;99.90;;;;;;5047367;28;20216;-69
2022/09/13 08:33:50;;;;;;;7.30;6.80;;;16.80;99.90;;;;;;5046982;28;20673;-69
2022/09/13 08:36:18;;;;;;;7.80;7.30;;;16.70;99.90;;;;;;5047631;28;20212;-69
2022/09/13 08:38:46;;;;;;;7.90;7.20;;;16.70;99.90;;;;;;5042199;28;20291;-69
2022/09/13 08:41:32;;;;;;;16.50;14.93;;;16.70;99.90;;;;;;5061784;28;20213;-68
2022/09/13 08:44:03;;;;;;;7.17;6.67;;;16.70;99.90;;;;;;5047718;28;20192;-68
2022/09/13 08:46:35;;;;;;;7.03;6.53;;;16.70;99.90;;;;;;5047304;28;20223;-70
2022/09/13 08:49:04;;;;;;;7.30;6.60;;;16.80;99.90;;;;;;5047709;28;20207;-68
2022/09/13 08:51:35;;;;;;;7.50;6.80;;;16.80;99.90;;;;;;5047825;28;20215;-68
2022/09/13 08:54:02;;;;;;;7.77;7.17;;;16.80;99.90;;;;;;5052970;28;20204;-68
2022/09/13 08:56:39;;;;;;;9.43;7.47;;;16.90;99.90;;;;;;5067530;28;20241;-67
2022/09/13 08:59:25;;;;;;;6.93;6.43;;;16.90;99.90;;;;;;5058288;28;20207;-68
2022/09/13 09:02:01;;;;;;;6.93;6.33;;;17.00;99.90;;;;;;5047211;28;20266;-67
2022/09/13 09:04:37;;;;;;;8.90;6.53;;;17.10;99.90;;;;;;5047258;28;20204;-67
2022/09/13 09:07:09;;;;;;;6.83;6.33;;;17.30;99.90;;;;;;5047587;28;20203;-68
2022/09/13 09:09:42;;;;;;;7.30;6.60;;;17.30;99.90;;;;;;5047367;28;20207;-67
2022/09/13 09:12:20;;;;;;;7.73;7.03;;;17.40;99.90;;;;;;5047326;28;20188;-68
2022/09/13 09:15:02;;;;;;;7.53;6.83;;;17.50;99.90;;;;;;5047264;28;20192;-68
2022/09/13 09:17:37;;;;;;;6.60;6.00;;;17.60;99.90;;;;;;5046692;28;20672;-68
2022/09/13 09:20:16;;;;;;;6.40;5.90;;;17.70;99.90;;;;;;5046952;28;20211;-67
2022/09/13 09:22:45;;;;;;;5.67;5.27;;;17.90;99.90;;;;;;5046845;28;20236;-67
2022/09/13 09:25:12;;;;;;;6.43;6.00;;;18.00;99.90;;;;;;5047036;28;20586;-68
2022/09/13 09:27:40;;;;;;;6.70;6.00;;;18.30;99.90;;;;;;5034383;28;20233;-68
2022/09/13 09:30:13;;;;;;;6.83;6.30;;;18.30;99.90;;;;;;5027058;28;20209;-68
2022/09/13 09:32:57;;;;;;;6.33;5.93;;;18.40;99.90;;;;;;5026981;28;20228;-68
2022/09/13 09:35:37;;;;;;;6.13;5.67;;;18.50;99.90;;;;;;5031808;28;20235;-69
2022/09/13 09:38:19;;;;;;;7.10;6.50;;;18.70;99.90;;;;;;5057285;28;20274;-68
2022/09/13 09:40:46;;;;;;;5.83;5.43;;;18.70;99.90;;;;;;5046762;28;20590;-68
2022/09/13 09:43:19;;;;;;;6.07;5.57;;;18.70;99.90;;;;;;5046863;28;20208;-68
2022/09/13 09:45:47;;;;;;;6.37;5.87;;;18.70;99.90;;;;;;5049574;28;20227;-68
2022/09/13 09:48:18;;;;;;;7.17;5.83;;;18.80;99.90;;;;;;5050698;28;20659;-68
2022/09/13 09:50:49;;;;;;;6.63;6.13;;;18.80;99.90;;;;;;5051124;28;20204;-69
2022/09/13 09:53:23;;;;;;;7.37;6.87;;;18.90;99.90;;;;;;5050795;28;20215;-69
2022/09/13 09:55:54;;;;;;;6.43;5.83;;;18.90;99.90;;;;;;5043996;28;20390;-68
2022/09/13 09:58:38;;;;;;;6.83;6.23;;;19.00;99.90;;;;;;5051040;28;20204;-68
2022/09/13 10:01:19;;;;;;;7.20;6.60;;;19.10;99.90;;;;;;5050404;28;20661;-68
2022/09/13 10:03:52;;;;;;;8.27;7.47;;;19.00;99.90;;;;;;5051106;28;20192;-69
2022/09/13 10:06:21;;;;;;;6.80;6.30;;;19.10;99.90;;;;;;5050468;28;20231;-68
2022/09/13 10:08:58;;;;;;;9.10;6.80;;;19.20;99.90;;;;;;5050937;28;20208;-68
2022/09/13 10:11:42;;;;;;;7.97;7.37;;;19.40;99.90;;;;;;5051043;28;20196;-68
2022/09/13 10:14:28;;;;;;;7.63;6.93;;;19.50;99.90;;;;;;5050196;28;20643;-69
2022/09/13 10:17:04;;;;;;;8.73;7.97;;;19.40;99.90;;;;;;5050664;28;20204;-68
2022/09/13 10:19:32;;;;;;;7.10;6.50;;;19.40;99.90;;;;;;5050638;28;20237;-69
2022/09/13 10:22:04;;;;;;;7.90;7.23;;;19.30;99.90;;;;;;5050627;28;20208;-69
2022/09/13 10:24:32;;;;;;;9.47;7.80;;;19.30;99.90;;;;;;5059090;28;20697;-69
2022/09/13 10:26:59;;;;;;;9.23;8.33;;;19.30;99.90;;;;;;5070441;28;20318;-68
2022/09/13 10:29:28;;;;;;;9.03;8.23;;;19.30;99.90;;;;;;5070365;28;20212;-68
2022/09/13 10:31:57;;;;;;;9.17;8.40;;;19.20;99.90;;;;;;5067874;28;20209;-67
2022/09/13 10:34:27;;;;;;;12.37;7.70;;;19.20;99.90;;;;;;5059839;28;20242;-68
2022/09/13 10:36:58;;;;;;;7.80;7.10;;;19.20;99.90;;;;;;5050088;28;20208;-67
2022/09/13 10:39:27;;;;;;;8.00;7.40;;;19.20;99.90;;;;;;5049811;28;20208;-67
2022/09/13 10:41:56;;;;;;;8.60;7.73;;;19.30;99.90;;;;;;5050067;28;20219;-67
2022/09/13 10:44:31;;;;;;;8.20;7.50;;;19.30;99.90;;;;;;5049444;28;20223;-67
2022/09/13 10:47:04;;;;;;;9.53;7.47;;;19.20;99.90;;;;;;5050022;28;20219;-68
2022/09/13 10:49:45;;;;;;;7.13;6.53;;;19.30;99.90;;;;;;5049780;28;20295;-67
2022/09/13 10:52:31;;;;;;;9.13;7.03;;;19.20;99.90;;;;;;5049840;28;20227;-68
2022/09/13 10:55:28;;;;;;;7.13;6.63;;;19.20;99.90;;;;;;5049573;28;20204;-67
2022/09/13 10:58:12;;;;;;;8.07;7.37;;;19.20;99.90;;;;;;5049721;28;20581;-67
2022/09/13 11:00:53;;;;;;;7.30;6.60;;;19.10;99.90;;;;;;5049342;28;20200;-68
2022/09/13 11:03:34;;;;;;;8.87;6.50;;;19.00;99.90;;;;;;5049643;28;20571;-68
2022/09/13 11:06:09;;;;;;;8.93;6.30;;;19.00;99.90;;;;;;5049647;28;20235;-68
2022/09/13 11:08:49;;;;;;;9.60;7.63;;;19.00;99.90;;;;;;5049333;28;20647;-68
2022/09/13 11:11:22;;;;;;;8.67;6.90;;;19.00;99.90;;;;;;5049575;28;20200;-68
2022/09/13 11:14:08;;;;;;;7.50;6.50;;;19.00;99.90;;;;;;5049468;28;20469;-68
2022/09/13 11:16:50;;;;;;;7.40;6.80;;;18.90;99.90;;;;;;5049198;28;20565;-68
2022/09/13 11:19:43;;;;;;;7.70;6.67;;;18.90;99.90;;;;;;5049015;28;20243;-68
2022/09/13 11:22:26;;;;;;;9.33;7.27;;;18.90;99.90;;;;;;5046227;28;20265;-68
2022/09/13 11:25:07;;;;;;;7.53;6.60;;;18.80;99.90;;;;;;5061419;28;20210;-68
2022/09/13 11:27:42;;;;;;;7.40;6.80;;;18.80;99.90;;;;;;5068267;28;20216;-67
2022/09/13 11:30:12;;;;;;;8.13;7.43;;;18.80;99.90;;;;;;5034537;28;20237;-67
2022/09/13 11:32:59;;;;;;;8.30;7.60;;;18.80;99.90;;;;;;5049008;28;20207;-67
2022/09/13 11:35:41;;;;;;;8.90;7.80;;;18.80;99.90;;;;;;5048576;28;20680;-68
2022/09/13 11:38:22;;;;;;;9.80;8.90;;;18.70;99.90;;;;;;5048058;28;20228;-67
2022/09/13 11:40:57;;;;;;;8.43;7.70;;;18.70;99.90;;;;;;5029079;28;20193;-68
2022/09/13 11:43:40;;;;;;;9.10;8.30;;;18.70;99.90;;;;;;5028611;28;20202;-67
2022/09/13 11:46:16;;;;;;;9.30;8.40;;;18.60;99.90;;;;;;5028545;28;20240;-67
2022/09/13 11:48:59;;;;;;;10.40;9.10;;;18.60;99.90;;;;;;5044858;28;20192;-68
2022/09/13 11:51:35;;;;;;;10.80;9.23;;;18.50;99.90;;;;;;5048605;28;20200;-68
2022/09/13 11:54:16;;;;;;;10.70;9.60;;;18.50;99.90;;;;;;5048222;28;20569;-67
2022/09/13 11:56:47;;;;;;;10.50;9.50;;;18.50;99.90;;;;;;5048897;28;20206;-67
2022/09/13 11:59:24;;;;;;;11.20;10.13;;;18.40;99.90;;;;;;5048162;28;20862;-67
2022/09/13 12:01:55;;;;;;;11.50;10.30;;;18.40;99.90;;;;;;5048457;28;20409;-67
2022/09/13 12:04:27;;;;;;;10.53;9.53;;;18.30;99.90;;;;;;5048210;28;20200;-67
2022/09/13 12:06:59;;;;;;;11.80;10.33;;;18.30;99.90;;;;;;5047731;28;20228;-68
2022/09/13 12:09:29;;;;;;;11.37;10.33;;;18.30;99.90;;;;;;5048031;28;20192;-68
2022/09/13 12:12:03;;;;;;;11.67;10.70;;;18.30;99.90;;;;;;5048470;28;20196;-67
2022/09/13 12:14:38;;;;;;;11.23;10.13;;;18.30;99.90;;;;;;5047742;28;20601;-67
2022/09/13 12:17:11;;;;;;;10.07;9.17;;;18.30;99.90;;;;;;5047435;28;20204;-67
2022/09/13 12:19:44;;;;;;;11.07;9.40;;;18.30;99.90;;;;;;5047651;28;20659;-67
2022/09/13 12:22:12;;;;;;;10.30;8.43;;;18.30;99.90;;;;;;5047905;28;20502;-68
2022/09/13 12:24:44;;;;;;;12.10;9.03;;;18.30;99.90;;;;;;5053618;28;20199;-67
2022/09/13 12:27:21;;;;;;;8.87;7.97;;;18.30;99.90;;;;;;5055119;28;20235;-68
2022/09/13 12:29:53;;;;;;;9.73;8.17;;;18.40;99.90;;;;;;5047941;28;20204;-68
2022/09/13 12:32:22;;;;;;;9.77;8.77;;;18.40;99.90;;;;;;5047907;28;20199;-68
2022/09/13 12:34:56;;;;;;;8.63;7.70;;;18.40;99.90;;;;;;5047384;28;20736;-68
2022/09/13 12:37:45;;;;;;;9.90;9.00;;;18.40;99.90;;;;;;5047235;28;20836;-68
2022/09/13 12:40:34;;;;;;;8.73;7.93;;;18.50;99.90;;;;;;5029943;28;20574;-68
2022/09/13 12:43:24;;;;;;;8.27;7.57;;;18.50;99.90;;;;;;5027796;28;20217;-68
2022/09/13 12:46:21;;;;;;;8.63;7.90;;;18.50;99.90;;;;;;5033605;28;20587;-68
2022/09/13 12:49:15;;;;;;;8.07;7.47;;;18.50;99.90;;;;;;5052508;28;20200;-68
2022/09/13 12:52:04;;;;;;;12.00;8.97;;;18.50;99.90;;;;;;5030430;28;20196;-68
2022/09/13 12:54:48;;;;;;;9.20;8.37;;;18.50;99.90;;;;;;5045768;28;20239;-68
2022/09/13 12:57:29;;;;;;;11.13;8.13;;;18.60;99.90;;;;;;5035991;28;20208;-68
2022/09/13 13:00:19;;;;;;;8.80;8.10;;;18.70;99.90;;;;;;5041525;28;20229;-68
2022/09/13 13:03:10;;;;;;;8.50;7.70;;;18.70;99.90;;;;;;5047284;28;20212;-68
2022/09/13 13:05:41;;;;;;;8.07;7.37;;;18.70;99.90;;;;;;5046805;28;20215;-68
2022/09/13 13:08:25;;;;;;;8.00;7.33;;;18.70;99.90;;;;;;5046785;28;20262;-68
2022/09/13 13:11:02;;;;;;;7.27;6.67;;;18.70;99.90;;;;;;5047453;28;20231;-68
2022/09/13 13:13:37;;;;;;;7.33;6.73;;;18.70;99.90;;;;;;5028446;28;20185;-68
2022/09/13 13:16:27;;;;;;;8.43;6.53;;;18.70;99.90;;;;;;5043178;28;20686;-68